Lancaster, California
Current Conditions -  °F | °C
As of 12:56 AM on Friday 31 Oct 2014 (Local Time) from KWJF Reporting Station
Clear Clear  
Wind Chill: 59°   Ceiling: Unl
Heat Index: 59°   Visibility: 10mi
Dew Point: 39°   Wind: 13mph
Humidity: 48%   Direction: 250°WSW
Pressure: 29.99"   Gusts: NA
Location:  34.7°N, 118.14°W
Report Text: KWJF 310756Z 25011KT 10SM CLR 15/04 A2999 RMK AO2 SLP143 T01500039 402670056
Loading
Personal Weather Stations






























Interactive Weather Map
Tropical Storm Tracking
New forecast layout! Learn more

10-Day Weather Forecast

Advertisements
Track Severe Weather on mobile